createdAt,value
2023-05-12T00:02:13.132Z,100620.13
2023-05-12T00:04:40.616Z,100613.19
2023-05-12T00:07:07.452Z,100611.16
2023-05-12T00:09:34.022Z,100589.28
2023-05-12T00:12:01.484Z,100587.25
2023-05-12T00:14:28.222Z,100578.25
2023-05-12T00:16:54.794Z,100567.41
2023-05-12T00:19:21.394Z,100556.78
2023-05-12T00:21:48.104Z,100544.94
2023-05-12T00:24:14.686Z,100507.53
2023-05-12T00:26:41.470Z,100497.72
2023-05-12T00:29:08.384Z,100484.44
2023-05-12T00:31:35.009Z,100473.81
2023-05-12T00:34:01.523Z,100465.84
2023-05-12T00:36:28.115Z,100452.56
2023-05-12T00:38:54.681Z,100436.63
2023-05-12T00:41:21.214Z,100425.81
2023-05-12T00:43:47.768Z,100402.69
2023-05-12T00:46:14.463Z,100387.75
2023-05-12T00:48:41.106Z,100371.38
2023-05-12T00:51:08.728Z,100347.25
2023-05-12T00:53:48.359Z,100321.91
2023-05-12T00:56:20.386Z,100301.25
2023-05-12T00:58:47.557Z,100294.06
2023-05-12T01:01:14.140Z,100276.28
2023-05-12T01:03:40.943Z,100260.94
2023-05-12T01:06:16.648Z,100240.69
2023-05-12T01:08:44.000Z,100219.03
2023-05-12T01:11:10.555Z,100212.06
2023-05-12T01:13:39.476Z,100199.16
2023-05-12T01:16:09.539Z,100178.50
2023-05-12T01:18:38.633Z,100170.09
2023-05-12T01:21:06.019Z,100153.09
2023-05-12T01:23:37.798Z,100128.41
2023-05-12T01:26:09.363Z,100116.28
2023-05-12T01:28:37.124Z,100106.25
2023-05-12T01:31:05.961Z,100092.34
2023-05-12T01:33:34.068Z,100077.00
2023-05-12T01:36:00.748Z,100071.91
2023-05-12T01:38:27.684Z,100074.72
2023-05-12T01:40:54.209Z,100031.56
2023-05-12T01:43:22.181Z,100058.22
2023-05-12T01:45:48.978Z,100066.88
2023-05-12T01:48:15.676Z,100075.06
2023-05-12T01:50:42.569Z,100077.56
2023-05-12T01:53:12.455Z,100078.81
2023-05-12T01:55:39.103Z,100072.31
2023-05-12T01:58:05.814Z,100070.69
2023-05-12T02:00:32.362Z,100068.81
2023-05-12T02:02:58.983Z,100061.31
2023-05-12T02:05:26.066Z,100056.59
2023-05-12T02:07:52.601Z,100046.22
2023-05-12T02:10:19.360Z,100042.94
2023-05-12T02:12:46.250Z,100026.81
2023-05-12T02:15:12.923Z,100029.03
2023-05-12T02:17:39.493Z,100013.47
2023-05-12T02:20:06.883Z,100002.66
2023-05-12T02:22:33.410Z,99989.75
2023-05-12T02:25:00.188Z,99980.34
2023-05-12T02:27:26.716Z,99966.84
2023-05-12T02:29:54.058Z,99964.78
2023-05-12T02:32:21.673Z,99947.00
2023-05-12T02:34:48.262Z,99929.47
2023-05-12T02:37:14.747Z,99921.50
2023-05-12T02:39:41.434Z,99915.84
2023-05-12T02:42:07.972Z,99915.47
2023-05-12T02:44:34.444Z,99905.28
2023-05-12T02:47:01.153Z,99897.09
2023-05-12T02:49:27.726Z,99887.97
2023-05-12T02:51:55.320Z,99886.78
2023-05-12T02:54:21.803Z,99886.63
2023-05-12T02:56:48.509Z,99887.50
2023-05-12T02:59:15.004Z,99884.03
2023-05-12T03:01:41.515Z,99887.72
2023-05-12T03:04:08.164Z,99873.63
2023-05-12T03:06:34.668Z,99870.38
2023-05-12T03:09:01.393Z,99871.66
2023-05-12T03:11:27.948Z,99871.50
2023-05-12T03:13:54.464Z,99857.88
2023-05-12T03:16:21.073Z,99858.88
2023-05-12T03:18:47.725Z,99865.22
2023-05-12T03:21:14.263Z,99851.44
2023-05-12T03:23:40.808Z,99848.78
2023-05-12T03:26:07.558Z,99847.41
2023-05-12T03:28:34.085Z,99841.50
2023-05-12T03:31:00.635Z,99843.16
2023-05-12T03:33:27.216Z,99832.41
2023-05-12T03:35:54.097Z,99819.81
2023-05-12T03:38:20.571Z,99822.84
2023-05-12T03:40:52.826Z,99817.78
2023-05-12T03:43:19.795Z,99817.97
2023-05-12T03:45:46.559Z,99803.75
2023-05-12T03:48:13.311Z,99797.19
2023-05-12T03:50:40.053Z,99789.47
2023-05-12T03:53:06.536Z,99790.06
2023-05-12T03:55:33.283Z,99782.56
2023-05-12T03:57:59.803Z,99785.00
2023-05-12T04:00:26.451Z,99782.56
2023-05-12T04:02:53.522Z,99768.72
2023-05-12T04:05:20.772Z,99758.34
2023-05-12T04:07:47.280Z,99766.94
2023-05-12T04:10:13.952Z,99753.31
2023-05-12T04:12:40.540Z,99751.28
2023-05-12T04:15:08.128Z,99745.16
2023-05-12T04:17:35.023Z,99737.56
2023-05-12T04:20:01.584Z,99734.78
2023-05-12T04:22:28.120Z,99728.88
2023-05-12T04:24:54.830Z,99725.84
2023-05-12T04:27:21.367Z,99728.72
2023-05-12T04:29:47.910Z,99723.44
2023-05-12T04:32:14.546Z,99709.34
2023-05-12T04:34:41.913Z,99710.41
2023-05-12T04:37:08.474Z,99709.56
2023-05-12T04:39:35.025Z,99698.59
2023-05-12T04:42:02.161Z,99697.00
2023-05-12T04:44:28.820Z,99700.31
2023-05-12T04:46:56.508Z,99694.63
2023-05-12T04:49:23.096Z,99689.34
2023-05-12T04:51:50.834Z,99688.31
2023-05-12T04:54:17.601Z,99691.19
2023-05-12T04:56:44.128Z,99688.53
2023-05-12T04:59:11.639Z,99691.19
2023-05-12T05:01:39.427Z,99684.66
2023-05-12T05:04:06.070Z,99674.47
2023-05-12T05:06:32.592Z,99674.47
2023-05-12T05:08:59.167Z,99673.66
2023-05-12T05:11:25.926Z,99675.72
2023-05-12T05:13:52.529Z,99660.66
2023-05-12T05:16:19.137Z,99661.00
2023-05-12T05:18:46.738Z,99661.81
2023-05-12T05:21:16.529Z,99650.41
2023-05-12T05:23:43.510Z,99642.25
2023-05-12T05:26:10.263Z,99642.81
2023-05-12T05:28:39.690Z,99634.31
2023-05-12T05:31:06.641Z,99630.25
2023-05-12T05:33:33.196Z,99634.72
2023-05-12T05:36:00.526Z,99626.00
2023-05-12T05:38:27.019Z,99620.25
2023-05-12T05:40:54.686Z,99610.88
2023-05-12T05:43:21.545Z,99612.53
2023-05-12T05:45:49.951Z,99609.88
2023-05-12T05:48:16.647Z,99609.88
2023-05-12T05:50:43.320Z,99612.97
2023-05-12T05:53:09.914Z,99602.00
2023-05-12T05:55:36.471Z,99597.28
2023-05-12T05:58:03.010Z,99597.06
2023-05-12T06:00:30.056Z,99595.22
2023-05-12T06:02:56.822Z,99586.25
2023-05-12T06:05:23.556Z,99581.75
2023-05-12T06:07:50.085Z,99578.47
2023-05-12T06:10:16.668Z,99577.03
2023-05-12T06:12:43.374Z,99575.44
2023-05-12T06:15:11.020Z,99576.59
2023-05-12T06:17:38.337Z,99577.63
2023-05-12T06:20:06.592Z,99569.59
2023-05-12T06:22:34.708Z,99565.13
2023-05-12T06:25:02.093Z,99560.63
2023-05-12T06:27:28.644Z,99550.38
2023-05-12T06:29:55.219Z,99545.44
2023-05-12T06:32:21.917Z,99541.56
2023-05-12T06:34:48.485Z,99530.72
2023-05-12T06:37:15.083Z,99532.47
2023-05-12T06:39:41.780Z,99524.28
2023-05-12T06:42:08.590Z,99508.75
2023-05-12T06:44:35.140Z,99500.56
2023-05-12T06:47:01.695Z,99507.28
2023-05-12T06:49:28.399Z,99491.50
2023-05-12T06:51:54.995Z,99477.31
2023-05-12T06:54:21.533Z,99476.88
2023-05-12T06:56:48.250Z,99458.44
2023-05-12T06:59:15.348Z,99456.72
2023-05-12T07:01:43.171Z,99450.50
2023-05-12T07:04:10.251Z,99441.63
2023-05-12T07:06:37.322Z,99432.41
2023-05-12T07:09:04.190Z,99424.31
2023-05-12T07:11:30.765Z,99413.63
2023-05-12T07:13:57.309Z,99400.22
2023-05-12T07:16:23.960Z,99385.94
2023-05-12T07:18:51.190Z,99370.38
2023-05-12T07:21:17.811Z,99362.97
2023-05-12T07:23:44.625Z,99355.69
2023-05-12T07:26:11.183Z,99354.44
2023-05-12T07:28:38.294Z,99341.94
2023-05-12T07:31:09.567Z,99344.16
2023-05-12T07:33:36.512Z,99335.13
2023-05-12T07:36:04.753Z,99336.19
2023-05-12T07:38:32.176Z,99343.09
2023-05-12T07:40:59.668Z,99333.53
2023-05-12T07:43:26.474Z,99326.47
2023-05-12T07:45:53.055Z,99327.84
2023-05-12T07:48:19.588Z,99317.56
2023-05-12T07:50:46.095Z,99307.59
2023-05-12T07:53:12.605Z,99297.56
2023-05-12T07:55:39.201Z,99299.03
2023-05-12T07:58:05.695Z,99294.59
2023-05-12T08:00:32.218Z,99282.81
2023-05-12T08:02:58.962Z,99273.25
2023-05-12T08:05:25.763Z,99257.00
2023-05-12T08:07:52.506Z,99238.69
2023-05-12T08:10:22.102Z,99235.94
2023-05-12T08:12:48.649Z,99222.81
2023-05-12T08:15:15.308Z,99220.53
2023-05-12T08:17:42.200Z,99196.19
2023-05-12T08:20:09.209Z,99191.72
2023-05-12T08:22:35.737Z,99179.03
2023-05-12T08:25:02.592Z,99175.66
2023-05-12T08:27:29.821Z,99159.53
2023-05-12T08:29:56.387Z,99156.69
2023-05-12T08:32:23.078Z,99139.03
2023-05-12T08:34:49.736Z,99140.09
2023-05-12T08:37:16.501Z,99149.69
2023-05-12T08:39:43.163Z,99154.19
2023-05-12T08:42:18.762Z,99169.25
2023-05-12T08:44:46.523Z,99170.84
2023-05-12T08:47:15.632Z,99192.81
2023-05-12T08:49:44.199Z,99212.97
2023-05-12T08:52:12.411Z,99217.31
2023-05-12T08:54:52.420Z,99220.03
2023-05-12T08:57:23.215Z,99248.00
2023-05-12T08:59:51.924Z,99274.56
2023-05-12T09:02:21.077Z,99274.75
2023-05-12T09:04:48.587Z,99262.03
2023-05-12T09:07:16.081Z,99251.41
2023-05-12T09:09:45.710Z,99240.56
2023-05-12T09:12:16.792Z,99251.06
2023-05-12T09:14:51.748Z,99258.38
2023-05-12T09:17:18.780Z,99264.47
2023-05-12T09:19:45.534Z,99283.47
2023-05-12T09:22:14.912Z,99303.63
2023-05-12T09:24:41.682Z,99340.91
2023-05-12T09:27:09.822Z,99331.53
2023-05-12T09:29:42.436Z,99364.66
2023-05-12T09:32:14.710Z,99359.59
2023-05-12T09:34:43.167Z,99385.03
2023-05-12T09:37:09.917Z,99410.44
2023-05-12T09:39:36.992Z,99436.78
2023-05-12T09:42:03.838Z,99460.06
2023-05-12T09:44:32.303Z,99513.59
2023-05-12T09:47:10.346Z,99554.59
2023-05-12T09:49:37.186Z,99653.22
2023-05-12T09:52:05.041Z,99711.78
2023-05-12T09:54:32.585Z,99744.00
2023-05-12T09:57:01.634Z,99793.44
2023-05-12T09:59:33.735Z,99839.97
2023-05-12T10:02:02.515Z,99890.09
2023-05-12T10:04:32.686Z,99920.09
2023-05-12T10:06:59.538Z,99969.00
2023-05-12T10:09:31.527Z,100018.31
2023-05-12T10:11:58.216Z,100074.03
2023-05-12T10:14:25.711Z,100109.09
2023-05-12T10:16:52.829Z,100137.34
2023-05-12T10:19:21.107Z,100160.81
2023-05-12T10:21:48.989Z,100202.91
2023-05-12T10:24:18.861Z,100223.63
2023-05-12T10:26:45.707Z,100279.56
2023-05-12T10:29:13.628Z,100370.38
2023-05-12T10:31:40.590Z,100422.63
2023-05-12T10:34:07.445Z,100498.41
2023-05-12T10:36:46.512Z,100614.84
2023-05-12T10:39:15.576Z,100693.38
2023-05-12T10:41:42.953Z,100738.16
2023-05-12T10:44:12.393Z,100777.94
2023-05-12T10:46:40.661Z,100828.19
2023-05-12T10:49:10.506Z,100921.59
2023-05-12T10:51:43.182Z,101002.09
2023-05-12T10:54:13.552Z,101039.88
2023-05-12T10:56:40.287Z,101088.25
2023-05-12T10:59:24.307Z,101149.13
2023-05-12T11:02:06.743Z,101203.88
2023-05-12T11:04:56.322Z,101304.47
2023-05-12T11:07:27.147Z,101354.47
2023-05-12T11:09:59.202Z,101362.28
2023-05-12T11:12:31.816Z,101380.53
2023-05-12T11:15:01.578Z,101402.88
2023-05-12T11:17:28.668Z,101433.41
2023-05-12T11:19:55.770Z,101457.63
2023-05-12T11:22:23.416Z,101481.66
2023-05-12T11:24:50.836Z,101484.47
2023-05-12T11:27:19.863Z,101474.03
2023-05-12T11:29:59.672Z,101488.06
2023-05-12T11:32:27.259Z,101486.56
2023-05-12T11:34:53.893Z,101500.25
2023-05-12T11:37:21.363Z,101551.38
2023-05-12T11:39:48.642Z,101617.94
2023-05-12T11:42:17.734Z,101629.84
2023-05-12T11:44:49.909Z,101658.97
2023-05-12T11:47:19.128Z,101664.63
2023-05-12T11:49:55.551Z,101656.22
2023-05-12T11:52:23.941Z,101663.25
2023-05-12T11:54:58.099Z,101676.84
2023-05-12T11:57:29.675Z,101676.16
2023-05-12T12:00:15.787Z,101695.38
2023-05-12T12:02:43.498Z,101720.91
2023-05-12T12:05:18.278Z,101746.97
2023-05-12T12:07:45.355Z,101763.03
2023-05-12T12:10:16.874Z,101758.28
2023-05-12T12:12:44.293Z,101755.28
2023-05-12T12:15:11.582Z,101766.63
2023-05-12T12:17:39.827Z,101761.84
2023-05-12T12:20:08.024Z,101773.13
2023-05-12T12:22:35.354Z,101786.47
2023-05-12T12:25:03.116Z,101797.81
2023-05-12T12:27:30.048Z,101817.56
2023-05-12T12:29:56.755Z,101807.69
2023-05-12T12:32:23.572Z,101806.22
2023-05-12T12:34:50.327Z,101806.47
2023-05-12T12:37:17.229Z,101804.25
2023-05-12T12:39:43.809Z,101799.50
2023-05-12T12:42:10.292Z,101808.94
2023-05-12T12:44:36.960Z,101807.53
2023-05-12T12:47:04.324Z,101807.16
2023-05-12T12:49:30.929Z,101806.00
2023-05-12T12:51:57.827Z,101814.31
2023-05-12T12:54:27.366Z,101833.94
2023-05-12T12:56:55.503Z,101838.72
2023-05-12T12:59:22.475Z,101851.09
2023-05-12T13:01:49.215Z,101844.56
2023-05-12T13:04:16.560Z,101838.84
2023-05-12T13:06:43.156Z,101852.78
2023-05-12T13:09:10.790Z,101845.47
2023-05-12T13:11:37.468Z,101833.75
2023-05-12T13:14:05.077Z,101836.00
2023-05-12T13:16:31.852Z,101841.31
2023-05-12T13:18:58.991Z,101833.72
2023-05-12T13:21:25.577Z,101828.72
2023-05-12T13:23:52.113Z,101839.19
2023-05-12T13:26:18.707Z,101849.66
2023-05-12T13:28:45.375Z,101856.16
2023-05-12T13:31:12.254Z,101849.84
2023-05-12T13:33:39.332Z,101860.78
2023-05-12T13:36:06.255Z,101869.06
2023-05-12T13:38:33.871Z,101881.91
2023-05-12T13:41:00.462Z,101882.44
2023-05-12T13:43:26.974Z,101897.50
2023-05-12T13:45:53.545Z,101892.63
2023-05-12T13:48:20.808Z,101890.34
2023-05-12T13:50:48.001Z,101893.94
2023-05-12T13:53:14.489Z,101901.19
2023-05-12T13:55:41.409Z,101888.75
2023-05-12T13:58:10.004Z,101888.56
2023-05-12T14:00:36.738Z,101891.72
2023-05-12T14:03:03.326Z,101880.91
2023-05-12T14:05:29.899Z,101887.81
2023-05-12T14:07:56.968Z,101866.34
2023-05-12T14:10:23.879Z,101889.22
2023-05-12T14:12:50.522Z,101913.81
2023-05-12T14:15:29.151Z,101913.72
2023-05-12T14:18:00.806Z,101905.44
2023-05-12T14:20:27.367Z,101897.38
2023-05-12T14:22:54.029Z,101903.47
2023-05-12T14:25:20.758Z,101904.28
2023-05-12T14:27:47.545Z,101908.78
2023-05-12T14:30:14.688Z,101904.97
2023-05-12T14:32:41.278Z,101897.00
2023-05-12T14:35:09.772Z,101888.09
2023-05-12T14:37:37.400Z,101888.25
2023-05-12T14:40:04.854Z,101898.09
2023-05-12T14:42:32.414Z,101901.09
2023-05-12T14:44:59.358Z,101914.63
2023-05-12T14:47:26.078Z,101929.50
2023-05-12T14:49:52.706Z,101935.97
2023-05-12T14:52:19.214Z,101936.47
2023-05-12T14:54:45.868Z,101939.72
2023-05-12T14:57:13.650Z,101937.69
2023-05-12T14:59:40.280Z,101938.22
2023-05-12T15:02:08.054Z,101951.50
2023-05-12T15:04:34.754Z,101943.91
2023-05-12T15:07:01.753Z,101930.09
2023-05-12T15:09:28.218Z,101937.97
2023-05-12T15:11:55.158Z,101939.19
2023-05-12T15:14:21.752Z,101932.44
2023-05-12T15:16:48.460Z,101938.50
2023-05-12T15:19:15.294Z,101937.63
2023-05-12T15:21:42.116Z,101946.16
2023-05-12T15:24:08.644Z,101953.41
2023-05-12T15:26:38.235Z,101961.00
2023-05-12T15:29:06.378Z,101958.44
2023-05-12T15:31:33.033Z,101958.59
2023-05-12T15:33:59.770Z,101953.47
2023-05-12T15:36:26.362Z,101962.19
2023-05-12T15:38:52.901Z,101960.09
2023-05-12T15:41:19.381Z,101962.69
2023-05-12T15:43:45.851Z,101956.44
2023-05-12T15:46:12.380Z,101953.38
2023-05-12T15:48:39.545Z,101954.41
2023-05-12T15:51:06.632Z,101954.25
2023-05-12T15:53:33.436Z,101957.91
2023-05-12T15:56:01.859Z,101961.75
2023-05-12T15:58:29.043Z,101968.88
2023-05-12T16:00:55.818Z,101975.72
2023-05-12T16:03:23.653Z,101983.31
2023-05-12T16:05:51.358Z,101976.19
2023-05-12T16:08:18.357Z,101969.25
2023-05-12T16:10:45.109Z,101959.88
2023-05-12T16:13:11.698Z,101963.22
2023-05-12T16:15:38.272Z,101958.97
2023-05-12T16:18:06.984Z,101962.38
2023-05-12T16:20:35.350Z,101958.19
2023-05-12T16:23:02.545Z,101959.47
2023-05-12T16:25:29.253Z,101968.81
2023-05-12T16:27:56.107Z,101972.78
2023-05-12T16:30:22.715Z,101965.03
2023-05-12T16:32:49.413Z,101972.53
2023-05-12T16:35:16.505Z,101986.91
2023-05-12T16:37:43.027Z,101983.38
2023-05-12T16:40:09.864Z,101983.66
2023-05-12T16:42:37.356Z,101979.97
2023-05-12T16:45:04.152Z,101979.03
2023-05-12T16:47:30.682Z,101979.19
2023-05-12T16:49:59.341Z,101973.94
2023-05-12T16:52:26.723Z,101977.16
2023-05-12T16:54:53.344Z,101980.16
2023-05-12T16:57:20.465Z,101978.34
2023-05-12T16:59:48.513Z,101973.88
2023-05-12T17:02:15.532Z,101977.19
2023-05-12T17:04:42.394Z,101973.13
2023-05-12T17:07:09.624Z,101977.06
2023-05-12T17:09:36.480Z,101974.38
2023-05-12T17:12:04.707Z,101977.44
2023-05-12T17:14:31.485Z,101976.97
2023-05-12T17:16:58.362Z,101973.88
2023-05-12T17:19:24.924Z,101966.81
2023-05-12T17:21:51.506Z,101962.47
2023-05-12T17:24:18.193Z,101958.13
2023-05-12T17:26:45.180Z,101957.31
2023-05-12T17:29:11.845Z,101933.16
2023-05-12T17:31:38.838Z,101928.25
2023-05-12T17:34:05.610Z,101917.94
2023-05-12T17:36:32.112Z,101916.13
2023-05-12T17:38:58.795Z,101913.03
2023-05-12T17:41:27.635Z,101908.09
2023-05-12T17:43:55.653Z,101901.13
2023-05-12T17:46:23.185Z,101897.66
2023-05-12T17:48:50.007Z,101896.66
2023-05-12T17:51:17.042Z,101883.94
2023-05-12T17:53:43.858Z,101878.78
2023-05-12T17:56:10.540Z,101877.38
2023-05-12T17:58:37.152Z,101877.78
2023-05-12T18:01:04.044Z,101874.09
2023-05-12T18:03:30.711Z,101874.72
2023-05-12T18:05:57.323Z,101882.78
2023-05-12T18:08:23.867Z,101869.81
2023-05-12T18:10:50.674Z,101865.91
2023-05-12T18:13:17.335Z,101853.56
2023-05-12T18:15:43.908Z,101845.53
2023-05-12T18:18:10.846Z,101832.91
2023-05-12T18:20:37.960Z,101836.00
2023-05-12T18:23:04.635Z,101826.94
2023-05-12T18:25:31.305Z,101816.44
2023-05-12T18:27:58.240Z,101801.22
2023-05-12T18:30:24.806Z,101805.75
2023-05-12T18:32:51.389Z,101836.19
2023-05-12T18:35:18.088Z,101897.50
2023-05-12T18:37:44.989Z,101980.00
2023-05-12T18:40:12.136Z,102046.59
2023-05-12T18:42:39.017Z,102063.53
2023-05-12T18:45:06.638Z,102085.34
2023-05-12T18:47:33.635Z,102085.09
2023-05-12T18:50:00.392Z,102081.38
2023-05-12T18:52:27.116Z,102064.47
2023-05-12T18:54:53.710Z,102055.81
2023-05-12T18:57:20.374Z,102042.41
2023-05-12T18:59:47.009Z,102017.03
2023-05-12T19:02:13.493Z,101990.44
2023-05-12T19:04:40.079Z,101951.16
2023-05-12T19:07:10.028Z,101918.00
2023-05-12T19:09:37.294Z,101869.47
2023-05-12T19:12:05.983Z,101832.97
2023-05-12T19:14:32.934Z,101798.75
2023-05-12T19:16:59.509Z,101764.25
2023-05-12T19:19:26.222Z,101743.56
2023-05-12T19:21:53.121Z,101717.16
2023-05-12T19:24:19.689Z,101682.50
2023-05-12T19:26:46.291Z,101668.19
2023-05-12T19:29:12.821Z,101643.00
2023-05-12T19:31:39.520Z,101621.75
2023-05-12T19:34:07.144Z,101593.97
2023-05-12T19:36:34.147Z,101568.41
2023-05-12T19:39:01.160Z,101545.13
2023-05-12T19:41:29.732Z,101509.63
2023-05-12T19:43:56.619Z,101462.97
2023-05-12T19:46:23.532Z,101428.25
2023-05-12T19:48:51.778Z,101399.00
2023-05-12T19:51:18.663Z,101369.78
2023-05-12T19:53:45.316Z,101347.09
2023-05-12T19:56:11.809Z,101321.94
2023-05-12T19:58:38.441Z,101284.97
2023-05-12T20:01:05.185Z,101248.16
2023-05-12T20:03:32.124Z,101227.72
2023-05-12T20:05:58.963Z,101202.59
2023-05-12T20:08:25.527Z,101166.59
2023-05-12T20:10:52.192Z,101153.09
2023-05-12T20:13:18.727Z,101126.91
2023-05-12T20:15:45.331Z,101107.03
2023-05-12T20:18:14.582Z,101095.81
2023-05-12T20:20:42.528Z,101068.44
2023-05-12T20:23:09.625Z,101038.38
2023-05-12T20:25:36.911Z,101009.97
2023-05-12T20:28:03.835Z,100988.50
2023-05-12T20:30:30.460Z,100969.88
2023-05-12T20:32:57.025Z,100957.22
2023-05-12T20:35:23.964Z,100927.34
2023-05-12T20:37:50.648Z,100892.78
2023-05-12T20:40:17.346Z,100884.41
2023-05-12T20:42:46.153Z,100867.66
2023-05-12T20:45:13.771Z,100851.31
2023-05-12T20:47:40.597Z,100835.16
2023-05-12T20:50:08.250Z,100817.16
2023-05-12T20:52:39.070Z,100810.81
2023-05-12T20:55:06.975Z,100794.03
2023-05-12T20:57:33.539Z,100743.75
2023-05-12T21:00:00.199Z,100715.13
2023-05-12T21:02:28.091Z,100693.03
2023-05-12T21:04:55.205Z,100684.84
2023-05-12T21:07:21.935Z,100672.41
2023-05-12T21:09:48.554Z,100659.53
2023-05-12T21:12:15.215Z,100655.44
2023-05-12T21:14:43.452Z,100644.81
2023-05-12T21:17:10.746Z,100639.69
2023-05-12T21:19:38.686Z,100636.03
2023-05-12T21:22:06.764Z,100620.28
2023-05-12T21:24:33.713Z,100609.47
2023-05-12T21:27:04.849Z,100607.19
2023-05-12T21:29:32.790Z,100586.56
2023-05-12T21:32:00.164Z,100592.06
2023-05-12T21:34:27.095Z,100570.59
2023-05-12T21:36:54.676Z,100540.94
2023-05-12T21:39:22.023Z,100529.28
2023-05-12T21:41:48.794Z,100521.47
2023-05-12T21:44:15.382Z,100512.84
2023-05-12T21:46:42.727Z,100498.13
2023-05-12T21:49:09.398Z,100479.91
2023-05-12T21:51:36.124Z,100468.22
2023-05-12T21:54:02.722Z,100442.69
2023-05-12T21:56:29.373Z,100424.28
2023-05-12T21:58:55.951Z,100414.88
2023-05-12T22:01:22.792Z,100405.72
2023-05-12T22:03:49.923Z,100382.81
2023-05-12T22:06:16.892Z,100373.66
2023-05-12T22:08:43.620Z,100364.69
2023-05-12T22:11:11.375Z,100353.47
2023-05-12T22:13:38.055Z,100360.84
2023-05-12T22:16:04.900Z,100361.50
2023-05-12T22:18:31.986Z,100356.81
2023-05-12T22:20:59.066Z,100349.88
2023-05-12T22:23:25.663Z,100340.31
2023-05-12T22:25:52.359Z,100333.19
2023-05-12T22:28:18.953Z,100329.09
2023-05-12T22:30:45.553Z,100321.94
2023-05-12T22:33:12.151Z,100333.59
2023-05-12T22:35:38.685Z,100316.47
2023-05-12T22:38:05.784Z,100321.38
2023-05-12T22:40:33.719Z,100311.19
2023-05-12T22:43:00.228Z,100300.19
2023-05-12T22:45:26.828Z,100305.94
2023-05-12T22:47:53.602Z,100307.16
2023-05-12T22:50:20.801Z,100303.09
2023-05-12T22:52:47.560Z,100292.88
2023-05-12T22:55:14.210Z,100281.91
2023-05-12T22:57:43.565Z,100287.78
2023-05-12T23:00:10.470Z,100264.09
2023-05-12T23:02:37.057Z,100258.56
2023-05-12T23:05:04.229Z,100251.88
2023-05-12T23:07:31.141Z,100238.59
2023-05-12T23:09:57.651Z,100231.06
2023-05-12T23:12:24.187Z,100230.25
2023-05-12T23:14:50.741Z,100212.31
2023-05-12T23:17:17.251Z,100212.13
2023-05-12T23:19:43.734Z,100209.53
2023-05-12T23:22:10.242Z,100208.09
2023-05-12T23:24:36.733Z,100197.31
2023-05-12T23:27:03.676Z,100187.56
2023-05-12T23:29:30.476Z,100189.44
2023-05-12T23:31:58.779Z,100190.34
2023-05-12T23:34:25.775Z,100185.22
2023-05-12T23:36:52.450Z,100178.09
2023-05-12T23:39:19.001Z,100190.34
2023-05-12T23:41:45.683Z,100183.66
2023-05-12T23:44:13.004Z,100178.34
2023-05-12T23:46:39.676Z,100173.69
2023-05-12T23:49:06.437Z,100164.72
2023-05-12T23:51:33.147Z,100160.66
2023-05-12T23:53:59.709Z,100144.16
2023-05-12T23:56:26.377Z,100127.44
2023-05-12T23:58:52.880Z,100119.91
